Portada
METAR-TAF:

METAR-TAF

Aeroports :

Hartford, Connecticut, Estats Units d'Amèrica

latitud: 41-44-06N, longitud: 072-39-06W, altitud: 5 m

Observació

L'informe es va fer fa 25 minuts, a les 00:01 UTC
Vent 5 kt del Nord-Oest
Temperatura 6°C
Humitat 87%
Pressió 1006 hPa
Visibilitat: 4.8 km
Cel ennuvolat a una alçada de 1500 ft
Cel ennuvolat a una alçada de 2400 ft
Cel cobert a una alçada de 3000 ft
pluja, boirina

METAR: KHFD 160001Z 32005KT 3SM RA BR BKN015 BKN024 OVC030 06/04 A2971 RMK AO2 P0001 T00610039

Hora: 20:26 (00:26 UTC)


TAF: manca

Observacions i pronòstics meteorològics de més de 4000 aeroports (METAR i TAF).

Les estacions disponibles són els punts grocs i vermells al mapa.

Posi el ratolí al punt desitjat per veure el nom de l'estació.

Feu clic per veure les observacions i els pronòstics meteorològics.

Per canviar el mapa: feu clic els botons verds amb una creu de color negre per apropar; al botó verd amb un guió per allunyar la imatge; o en les fletxes verdes per a mapes adjacents.


METAR-TAF: